Time;durP1;ratioP1;P1;durP2;ratioP2;P2;SDS_P1;SDS_P2;PMS_P1;PMS_P2;Temp;Humidity;BMP_temperature;BMP_pressure;BME280_temperature;BME280_humidity;BME280_pressure;Samples;Min_cycle;Max_cycle;Signal;HPM_P1;HPM_P2
2023/04/22 00:01:40;;;;;;;3.35;2.10;;;;;;;19.67;51.05;96614.91;10358131;28;20552;-76
2023/04/22 00:07:00;;;;;;;5.72;2.45;;;;;;;19.67;51.12;96606.81;10386735;28;20050;-76
2023/04/22 00:12:19;;;;;;;4.78;2.13;;;;;;;19.66;51.00;96614.13;10344165;28;20046;-76
2023/04/22 00:17:39;;;;;;;2.83;1.90;;;;;;;19.65;51.07;96604.44;10357932;28;20100;-76
2023/04/22 00:22:59;;;;;;;3.28;2.08;;;;;;;19.64;51.03;96600.16;10357978;28;20053;-76
2023/04/22 00:28:18;;;;;;;4.20;2.20;;;;;;;19.64;50.91;96607.44;10357848;28;20038;-76
2023/04/22 00:33:38;;;;;;;2.70;2.22;;;;;;;19.63;51.04;96595.06;10371232;28;20053;-76
2023/04/22 00:38:57;;;;;;;3.83;2.00;;;;;;;19.62;50.95;96596.19;10371249;28;20605;-76
2023/04/22 00:44:17;;;;;;;4.60;2.22;;;;;;;19.62;50.92;96588.88;10370918;28;20046;-76
2023/04/22 00:49:38;;;;;;;4.40;2.10;;;;;;;19.61;50.94;96584.59;10357382;28;20046;-76
2023/04/22 00:54:57;;;;;;;3.53;1.90;;;;;;;19.60;50.81;96585.72;10383799;28;20055;-76
2023/04/22 01:00:19;;;;;;;3.03;2.20;;;;;;;19.59;50.90;96578.72;10358089;28;20447;-76
2023/04/22 01:05:40;;;;;;;2.72;1.98;;;;;;;19.59;50.83;96583.34;10385466;28;20050;-76
2023/04/22 01:11:00;;;;;;;3.50;2.00;;;;;;;19.58;50.92;96577.13;10363652;28;20050;-76
2023/04/22 01:16:19;;;;;;;2.80;2.00;;;;;;;19.56;50.85;96582.06;10364023;28;20414;-76
2023/04/22 01:21:39;;;;;;;2.65;2.13;;;;;;;19.56;50.81;96577.47;10363765;28;20049;-76
2023/04/22 01:26:59;;;;;;;3.10;2.20;;;;;;;19.55;50.93;96575.88;10350075;28;20048;-76
2023/04/22 01:32:18;;;;;;;3.13;2.10;;;;;;;19.55;50.92;96585.91;10363276;28;20108;-76
2023/04/22 01:37:38;;;;;;;3.03;2.00;;;;;;;19.54;50.81;96584.31;10377095;28;20096;-76
2023/04/22 01:42:59;;;;;;;2.80;1.98;;;;;;;19.53;50.68;96578.13;10376689;28;20079;-76
2023/04/22 01:48:19;;;;;;;3.38;1.88;;;;;;;19.52;50.82;96575.75;10347058;28;20391;-76
2023/04/22 01:53:38;;;;;;;2.50;1.90;;;;;;;19.51;50.86;96572.25;10376155;28;20046;-76
2023/04/22 01:58:57;;;;;;;2.40;1.95;;;;;;;19.52;50.75;96567.63;10363446;28;20100;-76
2023/04/22 02:04:17;;;;;;;2.67;2.00;;;;;;;19.51;50.80;96574.19;10375764;28;20041;-76
2023/04/22 02:09:36;;;;;;;5.30;2.08;;;;;;;19.50;51.00;96576.09;10375461;28;20049;-76
2023/04/22 02:14:56;;;;;;;3.90;2.20;;;;;;;19.49;50.76;96576.41;10348353;28;20107;-76
2023/04/22 02:20:15;;;;;;;2.97;2.00;;;;;;;19.49;50.81;96571.03;10375243;28;20053;-76
2023/04/22 02:25:35;;;;;;;2.40;2.00;;;;;;;19.48;50.61;96575.63;10361287;28;20045;-76
2023/04/22 02:30:55;;;;;;;3.08;2.08;;;;;;;19.46;50.73;96572.44;10361216;28;20045;-76
2023/04/22 02:36:16;;;;;;;2.67;2.10;;;;;;;19.45;50.74;96572.78;10361154;28;20038;-76
2023/04/22 02:41:35;;;;;;;2.55;1.90;;;;;;;19.45;50.71;96565.47;10360838;28;20072;-76
2023/04/22 02:46:55;;;;;;;3.40;1.90;;;;;;;19.44;50.77;96565.81;10360541;28;20054;-76
2023/04/22 02:52:15;;;;;;;2.33;1.85;;;;;;;19.42;50.96;96558.03;10388958;28;20046;-76
2023/04/22 02:57:34;;;;;;;1.90;1.77;;;;;;;19.43;50.70;96556.13;10379847;28;20056;-76
2023/04/22 03:02:54;;;;;;;2.08;1.88;;;;;;;19.41;50.78;96564.56;10360013;28;20056;-76
2023/04/22 03:08:18;;;;;;;2.70;1.83;;;;;;;19.41;50.70;96561.06;10360291;28;20038;-76
2023/04/22 03:13:38;;;;;;;3.00;2.08;;;;;;;19.41;50.76;96559.16;10373069;28;20049;-76
2023/04/22 03:18:57;;;;;;;2.30;2.10;;;;;;;19.40;50.69;96551.38;10359621;28;20410;-76
2023/04/22 03:24:17;;;;;;;3.20;1.88;;;;;;;19.39;50.59;96560.59;10345673;28;20482;-76
2023/04/22 03:29:41;;;;;;;2.47;1.73;;;;;;;19.39;50.60;96549.81;10346031;28;20042;-76
2023/04/22 03:35:01;;;;;;;2.20;1.80;;;;;;;19.38;50.60;96548.22;10387378;28;20042;-76
2023/04/22 03:40:21;;;;;;;3.03;1.90;;;;;;;19.37;50.67;96552.81;10358811;28;20100;-76
2023/04/22 03:45:43;;;;;;;2.05;1.70;;;;;;;19.36;50.78;96545.84;10358757;28;20410;-76
2023/04/22 03:51:23;;;;;;;4.05;2.10;;;;;;;19.35;50.74;96549.66;10361094;28;20065;-76
2023/04/22 03:56:43;;;;;;;2.33;1.83;;;;;;;19.34;50.81;96542.66;10365351;28;20058;-76
2023/04/22 04:02:02;;;;;;;2.40;1.98;;;;;;;19.33;50.61;96546.50;10358457;28;20049;-76
2023/04/22 04:07:22;;;;;;;2.00;1.80;;;;;;;19.33;50.60;96546.50;10357925;28;20044;-77
2023/04/22 04:12:43;;;;;;;2.58;1.90;;;;;;;19.33;50.55;96541.88;10358122;28;20050;-76
2023/04/22 04:18:04;;;;;;;2.08;1.88;;;;;;;19.32;50.68;96550.31;10357943;28;20482;-76
2023/04/22 04:23:26;;;;;;;1.73;1.60;;;;;;;19.30;50.48;96541.75;10358000;28;20065;-76
2023/04/22 04:28:46;;;;;;;1.85;1.73;;;;;;;19.29;50.56;96538.25;10357701;28;20049;-76
2023/04/22 04:34:07;;;;;;;1.98;1.70;;;;;;;19.29;50.66;96543.66;10371140;28;20042;-76
2023/04/22 04:39:29;;;;;;;2.20;2.00;;;;;;;19.29;50.58;96543.66;10357765;28;20042;-76
2023/04/22 04:44:52;;;;;;;2.53;2.10;;;;;;;19.29;50.50;96540.19;10376813;28;20050;-76
2023/04/22 04:50:14;;;;;;;2.22;1.95;;;;;;;19.28;50.50;96544.75;10365328;28;20042;-76
2023/04/22 04:55:35;;;;;;;2.92;1.98;;;;;;;19.28;50.54;96549.38;10361725;28;20104;-76
2023/04/22 05:01:00;;;;;;;1.70;1.55;;;;;;;19.28;50.58;96546.69;10365565;28;20046;-76
2023/04/22 05:06:20;;;;;;;2.15;1.95;;;;;;;19.27;50.61;96545.91;10363152;28;20506;-76
2023/04/22 05:11:44;;;;;;;2.17;1.98;;;;;;;19.28;50.70;96552.09;10374362;28;20060;-76
2023/04/22 05:17:09;;;;;;;2.10;1.90;;;;;;;19.27;50.70;96553.22;10349074;28;20038;-76
2023/04/22 05:22:29;;;;;;;4.30;3.13;;;;;;;19.26;50.43;96551.63;10374835;28;20606;-78
2023/04/22 05:27:48;;;;;;;4.10;3.45;;;;;;;19.26;49.84;96557.03;10363744;28;20050;-79
2023/04/22 05:33:10;;;;;;;6.43;3.53;;;;;;;19.26;49.31;96557.81;10350111;28;20046;-78
2023/04/22 05:38:30;;;;;;;6.55;3.95;;;;;;;19.23;49.14;96563.06;10363314;28;20038;-78
2023/04/22 05:43:49;;;;;;;4.70;4.30;;;;;;;19.22;48.72;96556.09;10376810;28;20041;-78
2023/04/22 05:49:12;;;;;;;4.75;3.90;;;;;;;19.22;48.83;96566.91;10363201;28;20561;-76
2023/04/22 05:54:50;;;;;;;4.90;4.18;;;;;;;19.23;48.66;96563.06;10364763;28;20458;-77
2023/04/22 06:00:11;;;;;;;5.25;3.67;;;;;;;19.24;48.87;96564.66;10362620;28;20486;-77
2023/04/22 06:05:36;;;;;;;8.55;4.75;;;;;;;19.26;48.87;96573.22;10376108;28;20045;-77
2023/04/22 06:10:55;;;;;;;5.28;4.55;;;;;;;19.24;47.18;96565.44;10375484;28;20460;-77
2023/04/22 06:16:15;;;;;;;6.80;4.47;;;;;;;19.26;48.38;96570.53;10361032;28;20100;-78
2023/04/22 06:21:37;;;;;;;5.30;4.75;;;;;;;19.26;48.33;96565.13;10373765;28;20056;-77
2023/04/22 06:26:57;;;;;;;6.63;5.35;;;;;;;19.29;48.10;96567.97;10358564;28;20069;-77
2023/04/22 06:32:19;;;;;;;6.00;4.57;;;;;;;19.31;47.90;96571.13;10358163;28;20049;-77
2023/04/22 06:37:39;;;;;;;5.78;4.85;;;;;;;19.32;47.82;96575.41;10347310;28;20041;-77
2023/04/22 06:43:01;;;;;;;4.93;4.25;;;;;;;19.35;47.95;96568.56;10374470;28;20579;-76
2023/04/22 06:48:26;;;;;;;6.72;4.78;;;;;;;19.38;47.88;96570.59;10374922;28;20045;-77
2023/04/22 06:54:08;;;;;;;8.43;6.22;;;;;;;19.34;42.30;96575.09;10366391;28;20037;-76
2023/04/22 06:59:27;;;;;;;8.23;5.00;;;;;;;19.32;44.28;96575.41;10373243;28;20038;-77
2023/04/22 07:04:47;;;;;;;6.32;5.40;;;;;;;19.36;46.48;96570.13;10359129;28;20461;-77
2023/04/22 07:10:08;;;;;;;6.38;4.80;;;;;;;19.39;46.48;96582.22;10373227;28;20037;-76
2023/04/22 09:52:34;;;;;;;7.40;4.68;;;;;;;19.36;43.08;96535.03;11747377;23;20413;-49
2023/04/22 09:57:55;;;;;;;5.53;4.40;;;;;;;19.35;42.58;96523.44;10270068;28;20063;-49
2023/04/22 10:03:15;;;;;;;8.07;4.75;;;;;;;19.35;42.88;96526.13;10269857;28;20047;-49
2023/04/22 10:08:35;;;;;;;5.95;4.40;;;;;;;19.35;42.91;96522.66;10270101;28;20439;-49
2023/04/22 10:13:54;;;;;;;6.32;4.72;;;;;;;19.35;43.88;96511.84;10269156;28;20548;-49
2023/04/22 10:19:18;;;;;;;5.57;3.80;;;;;;;19.36;43.71;96513.41;10233869;28;20048;-49
2023/04/22 10:24:39;;;;;;;6.15;3.95;;;;;;;19.35;43.23;96511.84;10200409;29;20126;-49
2023/04/22 10:29:59;;;;;;;7.60;4.30;;;;;;;19.35;43.57;96504.53;10227234;29;20095;-50
2023/04/22 10:35:26;;;;;;;6.38;3.85;;;;;;;19.34;43.21;96504.84;10229249;29;20040;-51
2023/04/22 10:41:14;;;;;;;7.18;3.90;;;;;;;19.36;43.29;96499.91;11577013;23;20029;-50
2023/04/22 10:46:34;;;;;;;7.38;3.85;;;;;;;19.33;40.58;96484.38;10173544;29;20048;-50
2023/04/22 10:51:58;;;;;;;6.68;3.88;;;;;;;19.33;37.33;96487.09;10174501;29;20047;-47
2023/04/22 10:57:21;;;;;;;7.53;3.90;;;;;;;19.35;39.65;96477.53;10188673;29;20055;-50
2023/04/22 11:02:43;;;;;;;5.13;3.55;;;;;;;19.34;40.36;96477.84;10188807;29;20063;-47
2023/04/22 11:08:11;;;;;;;5.18;3.60;;;;;;;19.35;40.37;96479.44;10188778;29;20096;-46
2023/04/22 11:13:30;;;;;;;7.13;4.25;;;;;;;19.36;40.35;96470.19;10187018;29;20051;-47
2023/04/22 11:18:51;;;;;;;6.20;4.32;;;;;;;19.35;40.65;96476.72;10169874;29;20052;-48
2023/04/22 11:24:10;;;;;;;6.82;3.80;;;;;;;19.36;40.74;96467.50;10184077;29;20052;-46
2023/04/22 11:29:30;;;;;;;4.18;3.65;;;;;;;19.37;40.67;96461.00;10185666;29;20096;-49
2023/04/22 11:34:50;;;;;;;7.32;3.80;;;;;;;19.40;40.76;96464.94;10186364;29;20511;-49
2023/04/22 11:40:12;;;;;;;5.38;3.90;;;;;;;19.39;40.63;96461.44;10187524;29;20412;-48
2023/04/22 11:45:34;;;;;;;5.47;3.70;;;;;;;19.40;40.63;96454.13;10174672;29;20056;-48
2023/04/22 11:51:10;;;;;;;5.60;3.65;;;;;;;19.41;40.74;96453.81;10172713;29;20040;-47
2023/04/22 11:56:36;;;;;;;6.03;3.65;;;;;;;19.40;40.77;96441.41;10187125;29;20489;-47
2023/04/22 12:01:55;;;;;;;4.30;3.47;;;;;;;19.40;41.30;96457.59;10187188;29;20044;-48
2023/04/22 12:07:14;;;;;;;4.78;3.65;;;;;;;19.40;41.44;96432.50;10183799;29;20040;-49
2023/04/22 12:12:38;;;;;;;5.75;3.45;;;;;;;19.40;41.46;96440.63;10186498;29;20047;-48
2023/04/22 12:18:00;;;;;;;4.70;3.85;;;;;;;19.40;41.23;96438.69;10186692;29;20104;-51
2023/04/22 12:23:20;;;;;;;4.28;3.30;;;;;;;19.39;41.49;96434.44;10186592;29;20043;-50
2023/04/22 12:28:40;;;;;;;6.25;3.95;;;;;;;19.39;41.77;96418.22;10186644;29;20044;-49
2023/04/22 12:34:00;;;;;;;5.95;3.35;;;;;;;19.38;42.03;96411.22;10186365;29;20048;-50
2023/04/22 12:39:20;;;;;;;7.55;3.35;;;;;;;19.40;40.77;96414.38;10186204;29;20048;-49
2023/04/22 12:44:40;;;;;;;4.63;3.40;;;;;;;19.42;41.54;96408.66;10161923;29;20500;-49
2023/04/22 12:50:00;;;;;;;5.93;3.67;;;;;;;19.42;41.70;96406.75;10173608;29;20060;-49
2023/04/22 12:55:20;;;;;;;5.85;3.67;;;;;;;19.44;41.68;96406.41;10186051;29;20045;-50
2023/04/22 13:00:39;;;;;;;5.70;3.45;;;;;;;19.45;41.66;96384.47;10185987;29;20454;-46
2023/04/22 13:05:59;;;;;;;7.05;3.63;;;;;;;19.45;41.37;96381.78;10191174;29;20511;-48
2023/04/22 13:11:20;;;;;;;6.32;3.67;;;;;;;19.48;41.07;96389.22;10192901;29;20055;-47
2023/04/22 13:16:40;;;;;;;6.05;3.70;;;;;;;19.49;41.16;96376.50;10192551;29;20051;-49
2023/04/22 13:21:59;;;;;;;7.88;3.42;;;;;;;19.48;40.93;96375.72;10192663;29;20523;-47
2023/04/22 13:27:19;;;;;;;8.00;3.58;;;;;;;19.49;40.56;96366.47;10192220;29;20103;-49
2023/04/22 13:32:39;;;;;;;8.30;3.13;;;;;;;19.52;40.24;96371.22;10192205;29;20070;-50
2023/04/22 13:37:58;;;;;;;7.20;3.00;;;;;;;19.50;39.03;96361.84;10191671;29;20040;-50
2023/04/22 13:43:17;;;;;;;6.13;2.80;;;;;;;19.50;39.21;96372.66;10185132;29;20107;-48
2023/04/22 13:48:36;;;;;;;6.15;3.13;;;;;;;19.52;39.21;96370.41;10191686;29;20480;-48
2023/04/22 13:53:56;;;;;;;6.70;2.78;;;;;;;19.52;39.48;96365.81;10188962;29;20149;-46
2023/04/22 13:59:15;;;;;;;6.53;3.00;;;;;;;19.53;39.74;96351.16;10191111;29;20104;-59
2023/04/22 14:04:35;;;;;;;2.97;2.35;;;;;;;19.54;40.06;96352.75;10188338;29;20048;-55
2023/04/22 14:09:54;;;;;;;4.63;2.45;;;;;;;19.52;40.32;96343.41;10159607;29;20048;-56
2023/04/22 14:15:14;;;;;;;5.53;2.65;;;;;;;19.54;40.23;96333.03;10185904;29;20048;-54
2023/04/22 14:20:34;;;;;;;5.18;2.60;;;;;;;19.56;40.31;96336.19;10187851;29;20044;-48
2023/04/22 14:25:53;;;;;;;4.97;2.90;;;;;;;19.59;39.50;96327.44;10190189;29;20048;-47
2023/04/22 14:31:14;;;;;;;5.70;2.30;;;;;;;19.59;39.94;96330.13;10189920;29;20547;-47
2023/04/22 14:36:34;;;;;;;3.55;2.30;;;;;;;19.61;39.50;96325.19;10189775;29;20051;-46
2023/04/22 14:41:54;;;;;;;4.82;2.60;;;;;;;19.62;39.62;96325.97;10186387;29;20460;-49
2023/04/22 14:47:14;;;;;;;4.60;2.50;;;;;;;19.62;39.37;96320.56;10176917;29;20123;-49
2023/04/22 14:52:33;;;;;;;5.88;2.40;;;;;;;19.63;39.26;96322.16;10188545;29;20048;-49
2023/04/22 14:57:57;;;;;;;3.60;2.13;;;;;;;19.60;38.59;96307.41;10188942;29;20488;-58
2023/04/22 15:03:17;;;;;;;5.65;2.30;;;;;;;19.59;39.03;96315.84;10174870;29;20052;-49
2023/04/22 15:08:36;;;;;;;6.00;2.80;;;;;;;19.61;39.17;96313.59;10188446;29;20048;-57
2023/04/22 15:13:55;;;;;;;3.42;2.60;;;;;;;19.59;39.41;96311.22;10188105;29;20040;-56
2023/04/22 15:19:14;;;;;;;6.03;2.85;;;;;;;19.59;39.29;96295.00;10187973;29;20055;-55
2023/04/22 15:24:34;;;;;;;4.03;2.35;;;;;;;19.59;39.39;96302.34;10187731;29;20044;-57
2023/04/22 15:29:56;;;;;;;5.43;2.65;;;;;;;19.60;39.36;96309.31;10173160;29;20051;-54
2023/04/22 15:35:16;;;;;;;5.20;2.63;;;;;;;19.62;39.01;96307.84;10187743;29;20048;-46
2023/04/22 15:40:35;;;;;;;5.45;2.70;;;;;;;19.65;38.94;96303.69;10187583;29;20052;-48
2023/04/22 15:45:58;;;;;;;3.35;2.45;;;;;;;19.64;38.62;96304.78;10187551;29;20040;-49
2023/04/22 15:51:18;;;;;;;5.35;2.90;;;;;;;19.63;38.77;96308.63;10187065;29;20500;-49
2023/04/22 15:56:38;;;;;;;8.93;2.53;;;;;;;19.62;38.64;96298.94;10186997;29;20040;-48
2023/04/22 16:01:57;;;;;;;5.10;2.42;;;;;;;19.63;37.96;96295.13;10172789;29;20119;-50
2023/04/22 16:07:16;;;;;;;4.28;2.53;;;;;;;19.65;38.00;96287.47;10186546;29;20465;-50
2023/04/22 16:12:36;;;;;;;4.05;2.40;;;;;;;19.64;38.15;96288.59;10186676;29;20482;-50
2023/04/22 16:17:55;;;;;;;5.82;2.45;;;;;;;19.61;38.24;96279.25;10186680;29;20412;-50
2023/04/22 16:23:15;;;;;;;5.47;2.58;;;;;;;19.60;38.23;96280.38;10186121;29;20052;-51
2023/04/22 16:28:34;;;;;;;3.97;2.42;;;;;;;19.58;38.37;96271.03;10186327;29;20055;-50
2023/04/22 16:33:54;;;;;;;4.22;2.65;;;;;;;19.55;38.54;96262.47;10173932;29;20048;-47
2023/04/22 16:39:13;;;;;;;4.65;2.40;;;;;;;19.54;38.42;96252.81;10190406;29;20040;-49
2023/04/22 16:44:33;;;;;;;3.85;2.35;;;;;;;19.53;38.15;96247.72;10184597;29;20067;-50
2023/04/22 16:49:52;;;;;;;4.10;2.60;;;;;;;19.50;38.22;96246.50;10193650;29;20048;-48
2023/04/22 16:55:11;;;;;;;2.67;2.30;;;;;;;19.49;38.10;96244.91;10193567;29;20055;-48
2023/04/22 17:00:31;;;;;;;6.10;2.10;;;;;;;19.49;38.28;96247.59;10193150;29;20052;-50
2023/04/22 17:05:51;;;;;;;4.97;2.33;;;;;;;19.51;38.25;96244.56;10192895;29;20493;-47
2023/04/22 17:11:10;;;;;;;3.60;2.60;;;;;;;19.54;38.37;96242.00;10192671;29;20044;-51
2023/04/22 17:16:31;;;;;;;3.58;2.70;;;;;;;19.56;39.27;96237.03;10192832;29;20062;-48
2023/04/22 17:21:50;;;;;;;3.83;2.78;;;;;;;19.56;39.67;96239.75;10191926;29;20052;-50
2023/04/22 17:27:13;;;;;;;6.00;2.30;;;;;;;19.57;40.30;96237.81;10178108;29;20055;-56
2023/04/22 17:32:33;;;;;;;5.38;2.70;;;;;;;19.54;40.91;96236.59;10192084;29;20048;-56
2023/04/22 17:37:53;;;;;;;3.67;2.50;;;;;;;19.54;41.14;96236.59;10186007;29;20093;-57
2023/04/22 17:43:12;;;;;;;6.15;2.55;;;;;;;19.55;41.27;96231.97;10185029;29;20055;-51
2023/04/22 17:48:32;;;;;;;5.68;2.25;;;;;;;19.55;42.14;96230.03;10191311;29;20036;-58
2023/04/22 17:53:51;;;;;;;2.67;2.30;;;;;;;19.56;42.96;96236.22;10178994;29;20075;-51
2023/04/22 17:59:11;;;;;;;3.53;2.20;;;;;;;19.55;43.23;96232.75;10191424;29;20052;-50
2023/04/22 18:04:31;;;;;;;3.70;2.13;;;;;;;19.55;43.33;96232.75;10191237;29;20051;-51
2023/04/22 18:09:50;;;;;;;1.98;1.70;;;;;;;19.52;43.37;96236.13;10191116;29;20424;-52
2023/04/22 18:15:09;;;;;;;3.30;2.00;;;;;;;19.51;43.21;96242.66;10190802;29;20044;-51
2023/04/22 18:20:29;;;;;;;2.30;2.03;;;;;;;19.51;43.42;96248.06;10190659;29;20041;-51
2023/04/22 18:25:48;;;;;;;2.33;2.00;;;;;;;19.51;43.49;96258.88;10188909;29;20051;-50
2023/04/22 18:31:08;;;;;;;3.10;2.25;;;;;;;19.52;43.61;96267.75;10190147;29;20045;-51
2023/04/22 18:36:28;;;;;;;3.35;2.10;;;;;;;19.52;43.82;96262.34;10190077;29;20048;-50
2023/04/22 18:41:48;;;;;;;2.20;1.58;;;;;;;19.50;43.80;96273.50;10187041;29;20501;-50
2023/04/22 18:47:08;;;;;;;3.90;2.00;;;;;;;19.50;43.92;96275.41;10189577;29;20048;-53
2023/04/22 18:52:27;;;;;;;3.47;2.40;;;;;;;19.50;43.83;96281.63;10176380;29;20519;-47
2023/04/22 18:57:47;;;;;;;4.00;2.58;;;;;;;19.50;44.14;96278.91;10209769;23;20067;-71
2023/04/22 19:03:06;;;;;;;5.05;2.22;;;;;;;19.50;44.64;96284.31;10212893;29;20064;-71
2023/04/22 19:08:26;;;;;;;4.75;2.53;;;;;;;19.52;45.40;96281.25;10214097;29;20040;-71
2023/04/22 19:13:45;;;;;;;4.30;2.70;;;;;;;19.52;45.59;96295.56;10213700;29;20048;-71
2023/04/22 19:19:04;;;;;;;4.03;2.65;;;;;;;19.51;45.67;96288.59;10213594;29;20043;-71
2023/04/22 19:24:25;;;;;;;4.70;2.80;;;;;;;19.51;45.85;96285.88;10227845;29;20444;-72
2023/04/22 19:29:52;;;;;;;3.92;2.35;;;;;;;19.52;46.11;96284.78;10213648;29;20040;-72
2023/04/22 19:35:15;;;;;;;4.82;3.10;;;;;;;19.51;46.06;96290.50;10214517;29;20099;-72
2023/04/22 19:40:34;;;;;;;5.70;3.05;;;;;;;19.52;46.10;96294.75;10228067;29;20407;-71
2023/04/22 19:45:54;;;;;;;5.80;3.00;;;;;;;19.51;46.20;96293.97;10227439;29;20072;-72
2023/04/22 19:51:13;;;;;;;4.28;2.70;;;;;;;19.52;46.33;96289.38;10212653;29;20051;-72
2023/04/22 19:56:33;;;;;;;8.60;3.47;;;;;;;19.51;46.39;96293.19;10210917;29;20471;-74
2023/04/22 20:01:53;;;;;;;3.72;2.80;;;;;;;19.50;46.35;96292.44;10210681;28;20044;-74
2023/04/22 20:07:13;;;;;;;6.10;3.40;;;;;;;19.50;46.59;96278.91;10213944;29;20051;-75
2023/04/22 20:12:33;;;;;;;4.28;3.30;;;;;;;19.51;46.73;96285.09;10204374;28;20394;-74
2023/04/22 20:17:53;;;;;;;4.45;2.80;;;;;;;19.49;46.89;96280.03;10229379;29;20051;-73
2023/04/22 20:23:14;;;;;;;4.63;3.58;;;;;;;19.50;46.90;96281.63;10212119;29;20055;-72
2023/04/22 20:28:47;;;;;;;10.90;3.38;;;;;;;19.49;46.91;96280.03;10224759;29;20039;-74
2023/04/22 20:34:08;;;;;;;6.68;3.50;;;;;;;19.49;47.01;96280.03;10224842;29;20047;-72
2023/04/22 20:39:28;;;;;;;6.65;3.50;;;;;;;19.48;46.99;96278.47;10224874;29;20043;-73
2023/04/22 20:44:47;;;;;;;7.53;3.75;;;;;;;19.46;46.88;96272.59;10211198;29;20058;-72
2023/04/22 20:50:07;;;;;;;5.18;3.50;;;;;;;19.44;46.71;96274.81;10224354;29;20051;-73
2023/04/22 20:55:26;;;;;;;4.53;3.50;;;;;;;19.44;46.65;96274.81;10211269;29;20110;-73
2023/04/22 21:00:46;;;;;;;6.28;3.70;;;;;;;19.44;46.98;96269.44;10211545;29;20504;-72
2023/04/22 21:06:05;;;;;;;6.63;3.78;;;;;;;19.44;46.89;96260.53;10224226;29;20043;-72
2023/04/22 21:11:26;;;;;;;5.70;3.75;;;;;;;19.43;46.88;96265.16;10223497;29;20055;-72
2023/04/22 21:16:49;;;;;;;5.32;3.80;;;;;;;19.44;46.88;96269.44;10210438;29;20094;-72
2023/04/22 21:22:08;;;;;;;6.95;3.30;;;;;;;19.45;46.80;96268.31;10237722;29;20456;-72
2023/04/22 21:27:28;;;;;;;3.95;3.55;;;;;;;19.46;46.81;96269.88;10230125;29;20047;-72
2023/04/22 21:32:48;;;;;;;3.85;3.30;;;;;;;19.46;46.71;96264.47;10230937;29;20511;-72
2023/04/22 21:38:08;;;;;;;5.10;3.30;;;;;;;19.44;46.69;96261.31;10217396;29;20052;-72
2023/04/22 21:43:28;;;;;;;5.15;3.40;;;;;;;19.44;46.79;96255.91;10231506;29;20051;-72
2023/04/22 21:48:47;;;;;;;4.53;3.28;;;;;;;19.44;46.93;96264.03;10217231;29;20420;-72
2023/04/22 21:54:07;;;;;;;5.30;3.40;;;;;;;19.44;46.82;96271.34;10230087;29;20389;-72
2023/04/22 21:59:26;;;;;;;3.80;3.20;;;;;;;19.43;46.71;96262.47;10203222;29;20067;-72
2023/04/22 22:04:46;;;;;;;3.47;3.08;;;;;;;19.42;46.70;96268.97;10229830;29;20047;-72
2023/04/22 22:10:17;;;;;;;5.82;3.75;;;;;;;19.42;46.80;96260.09;10217024;29;20054;-72
2023/04/22 22:15:36;;;;;;;4.28;3.22;;;;;;;19.43;46.76;96261.69;10230419;29;20051;-72
2023/04/22 22:20:55;;;;;;;4.03;3.17;;;;;;;19.42;46.83;96260.88;10230113;29;20059;-72
2023/04/22 22:26:15;;;;;;;4.07;3.20;;;;;;;19.41;46.76;96266.63;10229017;29;20046;-72
2023/04/22 22:31:35;;;;;;;5.03;3.35;;;;;;;19.41;46.82;96264.72;10228748;29;20044;-72
2023/04/22 22:36:54;;;;;;;5.35;3.53;;;;;;;19.41;46.88;96269.34;10229390;29;20048;-72
2023/04/22 22:42:14;;;;;;;3.50;3.03;;;;;;;19.40;46.87;96273.16;10228326;29;20055;-72
2023/04/22 22:47:34;;;;;;;4.68;3.28;;;;;;;19.39;46.89;96266.97;10228164;29;20048;-72
2023/04/22 22:52:53;;;;;;;3.97;3.15;;;;;;;19.39;46.85;96279.69;10227878;29;20040;-72
2023/04/22 22:58:12;;;;;;;4.07;3.20;;;;;;;19.39;46.88;96268.88;10225780;29;20062;-72
2023/04/22 23:03:32;;;;;;;3.20;2.90;;;;;;;19.39;46.71;96269.66;10268285;28;20051;-72
2023/04/22 23:08:51;;;;;;;3.38;3.08;;;;;;;19.37;46.80;96261.09;10240202;28;20046;-72
2023/04/22 23:14:11;;;;;;;3.85;3.20;;;;;;;19.36;46.81;96260.31;10267816;28;20506;-72
2023/04/22 23:19:31;;;;;;;3.30;3.00;;;;;;;19.36;46.77;96260.31;10267667;28;20058;-72
2023/04/22 23:24:51;;;;;;;4.53;3.03;;;;;;;19.36;46.80;96257.59;10252990;28;20062;-72
2023/04/22 23:30:11;;;;;;;4.20;3.33;;;;;;;19.36;46.78;96260.31;10240094;28;20051;-72
2023/04/22 23:35:32;;;;;;;3.17;2.88;;;;;;;19.35;46.75;96250.63;10252725;28;20079;-72
2023/04/22 23:40:51;;;;;;;3.30;3.00;;;;;;;19.35;46.78;96242.53;10239209;28;20051;-72
2023/04/22 23:46:11;;;;;;;3.05;2.75;;;;;;;19.35;46.76;96236.34;10238593;28;20059;-72
2023/04/22 23:51:31;;;;;;;3.95;3.10;;;;;;;19.35;46.74;96241.75;10238825;28;20098;-72
2023/04/22 23:56:51;;;;;;;3.17;2.88;;;;;;;19.34;46.69;96234.75;10249775;28;20055;-71
